Time;durP1;ratioP1;P1;durP2;ratioP2;P2;SDS_P1;SDS_P2;PMS_P1;PMS_P2;Temp;Humidity;BMP_temperature;BMP_pressure;BME280_temperature;BME280_humidity;BME280_pressure;Samples;Min_cycle;Max_cycle;Signal;HPM_P1;HPM_P2
2023/02/11 00:01:39;;;;;;;16.50;9.40;;;;;;;-0.55;75.15;100205.73;105565;1254;75511;-25
2023/02/11 00:04:09;;;;;;;21.70;11.40;;;;;;;-0.71;76.07;100198.33;105562;1254;76031;-25
2023/02/11 00:06:38;;;;;;;19.00;8.60;;;;;;;-0.63;76.46;100205.70;105576;1255;73234;-25
2023/02/11 00:09:09;;;;;;;14.70;8.60;;;;;;;-0.09;75.02;100197.90;105689;1258;61156;-25
2023/02/11 00:11:38;;;;;;;10.90;6.50;;;;;;;0.11;73.43;100192.41;105688;1261;61532;-25
2023/02/11 00:14:07;;;;;;;19.70;11.10;;;;;;;-0.00;73.73;100190.41;105628;1254;75410;-25
2023/02/11 00:16:37;;;;;;;18.60;8.70;;;;;;;-0.10;74.20;100188.55;105555;1254;74814;-26
2023/02/11 00:19:06;;;;;;;15.10;7.70;;;;;;;-0.26;74.83;100189.70;105562;1259;72977;-25
2023/02/11 00:21:36;;;;;;;21.90;10.10;;;;;;;-0.42;75.59;100192.20;105688;1254;61072;-26
2023/02/11 00:24:05;;;;;;;22.40;11.00;;;;;;;-0.53;76.04;100198.71;105362;1260;61624;-25
2023/02/11 00:26:34;;;;;;;14.80;6.90;;;;;;;-0.63;76.44;100193.24;105598;1254;75610;-25
2023/02/11 00:29:04;;;;;;;12.70;6.50;;;;;;;-0.14;76.03;100194.58;105564;1257;76641;-26
2023/02/11 00:31:34;;;;;;;16.10;7.40;;;;;;;0.36;73.65;100200.45;105568;1257;73621;-25
2023/02/11 00:34:06;;;;;;;18.50;9.60;;;;;;;0.44;72.86;100203.16;105544;1254;62081;-25
2023/02/11 00:36:36;;;;;;;15.30;7.20;;;;;;;0.28;73.14;100205.57;105506;1259;61672;-25
2023/02/11 00:39:05;;;;;;;19.00;8.80;;;;;;;0.07;74.18;100207.35;105535;1254;75274;-25
2023/02/11 00:41:37;;;;;;;14.60;8.90;;;;;;;-0.14;74.66;100204.66;105702;1255;75842;-26
2023/02/11 00:44:06;;;;;;;21.00;9.30;;;;;;;-0.28;75.32;100201.17;105825;1255;74165;-25
2023/02/11 00:46:35;;;;;;;17.40;8.50;;;;;;;-0.42;75.91;100195.28;105676;1254;60988;-25
2023/02/11 00:49:05;;;;;;;17.90;8.90;;;;;;;-0.54;76.68;100195.50;105539;1260;61833;-25
2023/02/11 00:51:35;;;;;;;13.50;6.80;;;;;;;-0.24;76.79;100193.23;105548;1257;75332;-25
2023/02/11 00:54:04;;;;;;;20.70;7.70;;;;;;;0.42;74.44;100185.64;105597;1256;75847;-25
2023/02/11 00:56:33;;;;;;;15.30;7.90;;;;;;;0.57;73.33;100174.89;105535;1254;74193;-25
2023/02/11 00:59:02;;;;;;;14.40;7.90;;;;;;;0.43;73.57;100170.73;105522;1254;61136;-25
2023/02/11 01:01:31;;;;;;;17.00;9.60;;;;;;;0.24;74.08;100165.67;105570;1256;61808;-25
2023/02/11 01:04:01;;;;;;;16.60;8.80;;;;;;;0.06;74.78;100165.02;105602;1254;75522;-25
2023/02/11 01:06:30;;;;;;;21.20;10.30;;;;;;;-0.12;75.49;100160.77;105530;1267;75627;-25
2023/02/11 01:08:59;;;;;;;18.70;9.70;;;;;;;-0.30;76.27;100159.90;105627;1256;73879;-25
2023/02/11 01:11:32;;;;;;;20.30;10.40;;;;;;;-0.41;77.00;100161.81;105496;1254;61178;-25
2023/02/11 01:14:01;;;;;;;17.90;8.20;;;;;;;-0.49;77.24;100156.67;105588;1256;61659;-25
2023/02/11 01:16:30;;;;;;;15.10;7.40;;;;;;;0.06;76.68;100152.02;105551;1254;75395;-25
2023/02/11 01:18:59;;;;;;;22.60;10.30;;;;;;;0.63;74.31;100144.85;105550;1256;76066;-25
2023/02/11 01:21:28;;;;;;;20.40;9.80;;;;;;;0.74;73.27;100144.76;105556;1254;74339;-26
2023/02/11 01:23:57;;;;;;;22.10;9.30;;;;;;;0.61;73.06;100141.64;105533;1254;61190;-25
2023/02/11 01:26:27;;;;;;;20.30;9.20;;;;;;;0.40;73.40;100142.45;105309;1252;61707;-25
2023/02/11 01:28:59;;;;;;;20.00;11.00;;;;;;;0.20;73.69;100133.98;105533;1256;75285;-25
2023/02/11 01:31:29;;;;;;;22.40;10.70;;;;;;;0.02;74.12;100131.98;105340;1259;74089;-26
2023/02/11 01:34:00;;;;;;;16.00;9.00;;;;;;;-0.11;74.75;100124.23;105293;1262;74011;-25
2023/02/11 01:36:30;;;;;;;20.40;10.10;;;;;;;-0.23;74.92;100118.81;105564;1256;61157;-25
2023/02/11 01:39:00;;;;;;;20.30;11.40;;;;;;;-0.32;74.93;100114.55;105845;1254;61711;-25
2023/02/11 01:41:30;;;;;;;16.60;8.50;;;;;;;-0.39;75.30;100118.60;105712;1254;75363;-25
2023/02/11 01:44:26;;;;;;;16.30;8.10;;;;;;;0.13;75.42;100118.59;105695;1261;75882;-25
2023/02/11 01:46:55;;;;;;;19.20;8.50;;;;;;;0.90;73.14;100118.39;105569;1254;72915;-25
2023/02/11 01:49:34;;;;;;;20.20;9.10;;;;;;;0.97;72.26;100118.73;105654;1255;61872;-25
2023/02/11 01:52:05;;;;;;;17.60;9.90;;;;;;;0.83;71.99;100114.48;105690;1260;61782;-25
2023/02/11 01:57:28;;;;;;;23.00;9.70;;;;;;;0.30;72.63;100112.77;105696;1260;75632;-25
2023/02/11 02:00:20;;;;;;;16.10;9.50;;;;;;;0.14;72.90;100105.27;105684;1257;72851;-25
2023/02/11 02:03:01;;;;;;;21.80;9.20;;;;;;;-0.04;73.20;100104.61;105697;1259;61172;-25
2023/02/11 02:05:59;;;;;;;20.10;10.20;;;;;;;-0.20;73.55;100099.98;105925;1256;62128;-25
2023/02/11 02:08:34;;;;;;;15.80;8.80;;;;;;;-0.36;74.19;100102.16;105680;1260;75466;-25
2023/02/11 02:11:06;;;;;;;14.30;7.60;;;;;;;-0.40;74.28;100101.55;105691;1263;76139;-25
2023/02/11 02:13:38;;;;;;;16.00;7.30;;;;;;;0.24;74.36;100098.36;105869;1256;74236;-25
2023/02/11 02:16:11;;;;;;;13.60;7.40;;;;;;;0.89;72.64;100100.14;105623;1255;61553;-26
2023/02/11 02:19:02;;;;;;;19.60;7.60;;;;;;;0.98;71.60;100096.65;105282;1261;62411;-25
2023/02/11 02:21:53;;;;;;;18.80;7.90;;;;;;;0.79;71.15;100093.19;105684;1259;75102;-25
2023/02/11 02:24:59;;;;;;;16.10;7.40;;;;;;;0.52;71.54;100092.45;105512;1263;75449;-25
2023/02/11 02:27:47;;;;;;;15.50;8.70;;;;;;;0.26;71.93;100079.90;105494;1259;74396;-25
2023/02/11 02:30:45;;;;;;;17.50;8.80;;;;;;;0.01;72.93;100080.77;105146;1260;61197;-26
2023/02/11 02:33:27;;;;;;;14.60;7.40;;;;;;;-0.19;73.33;100080.14;105494;1254;61764;-25
2023/02/11 02:36:06;;;;;;;17.90;8.50;;;;;;;-0.34;74.29;100076.36;105282;1263;75254;-25
2023/02/11 02:38:42;;;;;;;17.90;8.20;;;;;;;-0.45;74.79;100080.52;105472;1259;74671;-25
2023/02/11 02:41:13;;;;;;;19.20;6.90;;;;;;;-0.51;75.11;100076.02;105500;1259;74322;-25
2023/02/11 02:43:46;;;;;;;15.20;7.00;;;;;;;0.11;74.38;100076.97;105347;1254;61180;-25
2023/02/11 02:46:23;;;;;;;14.60;7.60;;;;;;;0.77;72.38;100078.02;105546;1254;61153;-25
2023/02/11 02:48:53;;;;;;;17.40;8.40;;;;;;;0.84;71.16;100075.98;105701;1259;75160;-26
2023/02/11 02:52:04;;;;;;;13.70;7.50;;;;;;;0.67;71.21;100075.17;105479;1260;73853;-25
2023/02/11 02:55:11;;;;;;;18.00;8.60;;;;;;;0.42;71.98;100077.65;105336;1260;74202;-25
2023/02/11 02:57:42;;;;;;;17.30;8.40;;;;;;;0.18;72.30;100071.67;105618;1257;61763;-25
2023/02/11 03:00:14;;;;;;;20.30;9.40;;;;;;;0.03;72.81;100071.68;105703;1259;61569;-25
2023/02/11 03:03:13;;;;;;;17.40;8.60;;;;;;;-0.12;73.31;100069.42;105579;1260;75367;-25
2023/02/11 03:05:48;;;;;;;15.20;8.10;;;;;;;-0.26;73.35;100063.73;105552;1260;75957;-25
2023/02/11 03:08:37;;;;;;;14.90;7.10;;;;;;;-0.38;74.05;100056.98;105612;1256;74042;-25
2023/02/11 03:11:05;;;;;;;13.80;7.10;;;;;;;0.26;73.71;100056.66;105672;1270;61212;-25
2023/02/11 03:13:35;;;;;;;16.20;8.70;;;;;;;0.81;72.14;100057.58;105683;1270;61823;-25
2023/02/11 03:16:11;;;;;;;15.00;8.10;;;;;;;0.88;71.47;100054.48;105640;1254;75844;-25
2023/02/11 03:18:41;;;;;;;17.60;8.00;;;;;;;0.73;71.25;100047.52;105220;1260;74648;-25
2023/02/11 03:21:10;;;;;;;19.80;8.60;;;;;;;0.52;71.25;100043.58;105263;1260;74205;-25
2023/02/11 03:23:43;;;;;;;22.20;9.40;;;;;;;0.29;71.83;100037.62;105654;1259;61132;-25
2023/02/11 03:26:24;;;;;;;19.40;10.00;;;;;;;0.05;72.32;100031.52;105545;1253;61046;-26
2023/02/11 03:29:21;;;;;;;18.20;8.10;;;;;;;-0.11;72.94;100028.11;105503;1261;75346;-25
2023/02/11 03:32:24;;;;;;;19.70;10.30;;;;;;;-0.28;73.34;100027.77;105657;1260;76091;-25
2023/02/11 03:35:14;;;;;;;16.70;8.10;;;;;;;-0.40;73.69;100027.69;105626;1267;74266;-25
2023/02/11 03:37:56;;;;;;;18.00;7.40;;;;;;;-0.44;74.09;100025.55;105740;1255;61464;-25
2023/02/11 03:40:26;;;;;;;12.60;6.80;;;;;;;0.24;73.60;100028.68;105623;1269;61903;-25
2023/02/11 03:43:00;;;;;;;16.30;7.70;;;;;;;0.71;72.20;100030.48;105300;1260;75313;-26
2023/02/11 03:45:29;;;;;;;23.10;9.90;;;;;;;0.68;71.40;100030.89;105311;1262;75049;-26
2023/02/11 03:48:05;;;;;;;19.40;7.80;;;;;;;0.52;71.58;100027.70;105544;1260;74397;-25
2023/02/11 03:50:33;;;;;;;16.10;8.60;;;;;;;0.29;71.81;100016.79;105541;1254;61160;-25
2023/02/11 03:53:02;;;;;;;18.70;9.20;;;;;;;0.09;72.00;100016.39;105621;1254;62510;-25
2023/02/11 03:55:33;;;;;;;22.00;9.20;;;;;;;-0.10;72.87;100011.18;105339;1261;75764;-25
2023/02/11 03:58:01;;;;;;;18.00;8.90;;;;;;;-0.30;74.06;100016.73;105590;1259;75758;-25
2023/02/11 04:00:31;;;;;;;18.70;10.20;;;;;;;-0.45;74.58;100012.42;105534;1260;74182;-25
2023/02/11 04:03:00;;;;;;;18.70;8.50;;;;;;;-0.53;75.01;100005.41;105315;1254;61361;-25
2023/02/11 04:05:30;;;;;;;19.90;10.20;;;;;;;-0.06;74.86;100002.02;105656;1258;61633;-25
2023/02/11 04:07:58;;;;;;;15.50;8.30;;;;;;;0.45;73.69;100003.42;105551;1259;75194;-26
2023/02/11 04:10:27;;;;;;;18.70;9.40;;;;;;;0.52;72.90;100000.68;105630;1261;75761;-25
2023/02/11 04:12:56;;;;;;;19.40;10.00;;;;;;;0.31;73.26;99994.02;105764;1259;73862;-25
2023/02/11 04:15:25;;;;;;;21.40;10.30;;;;;;;0.09;74.36;99990.77;105668;1260;61230;-25
2023/02/11 04:17:54;;;;;;;19.70;10.40;;;;;;;-0.13;75.52;99983.42;105555;1253;62025;-25
2023/02/11 04:20:23;;;;;;;16.20;9.60;;;;;;;-0.31;76.15;99981.27;105682;1254;74741;-26
2023/02/11 04:22:52;;;;;;;25.80;10.90;;;;;;;-0.48;77.23;99987.42;105729;1260;75664;-25
2023/02/11 04:25:21;;;;;;;17.60;8.90;;;;;;;-0.63;78.46;99982.93;105653;1254;74204;-25
2023/02/11 04:27:51;;;;;;;17.70;8.70;;;;;;;-0.11;78.03;99976.02;105505;1255;61144;-25
2023/02/11 04:30:20;;;;;;;17.60;8.40;;;;;;;0.41;76.21;99978.77;105330;1269;61873;-25
2023/02/11 04:32:48;;;;;;;19.10;9.80;;;;;;;0.43;75.55;99974.44;105541;1255;75113;-25
2023/02/11 04:35:17;;;;;;;15.40;9.10;;;;;;;0.27;75.55;99967.80;105811;1260;75879;-25
2023/02/11 04:37:46;;;;;;;21.70;9.60;;;;;;;0.06;75.93;99964.38;105961;1254;74200;-25
2023/02/11 04:40:15;;;;;;;24.10;9.20;;;;;;;-0.14;76.67;99962.63;105789;1253;61288;-25
2023/02/11 04:42:45;;;;;;;19.30;10.40;;;;;;;-0.35;77.32;99955.56;105589;1256;61114;-25
2023/02/11 04:45:14;;;;;;;21.70;11.50;;;;;;;-0.48;77.46;99946.48;105573;1257;75496;-25
2023/02/11 04:47:43;;;;;;;19.30;8.50;;;;;;;-0.26;78.11;99947.52;105578;1260;75210;-25
2023/02/11 04:50:12;;;;;;;19.10;11.20;;;;;;;0.30;76.71;99940.41;105517;1257;74260;-25
2023/02/11 04:52:41;;;;;;;19.60;9.90;;;;;;;0.46;75.79;99942.55;105709;1257;61908;-25
2023/02/11 04:55:11;;;;;;;18.20;8.30;;;;;;;0.34;75.65;99938.42;105591;1256;61706;-25
2023/02/11 04:57:40;;;;;;;19.00;10.20;;;;;;;0.13;75.75;99931.27;105371;1260;75367;-24
2023/02/11 05:00:09;;;;;;;27.50;12.00;;;;;;;-0.08;76.33;99928.85;105591;1260;75956;-24
2023/02/11 05:02:38;;;;;;;23.20;11.80;;;;;;;-0.29;77.33;99919.95;105573;1253;74096;-24
2023/02/11 05:05:07;;;;;;;23.70;12.80;;;;;;;-0.46;78.07;99921.00;105711;1257;61040;-24
2023/02/11 05:07:36;;;;;;;18.50;9.20;;;;;;;-0.53;78.53;99916.73;105477;1260;61624;-24
2023/02/11 05:10:05;;;;;;;22.30;11.10;;;;;;;-0.05;77.84;99918.70;105758;1255;75404;-24
2023/02/11 05:12:35;;;;;;;22.90;9.60;;;;;;;0.44;76.03;99917.52;105520;1254;75533;-27
2023/02/11 05:15:04;;;;;;;21.40;11.20;;;;;;;0.48;75.55;99910.75;105613;1254;72957;-24
2023/02/11 05:17:33;;;;;;;22.10;10.10;;;;;;;0.32;75.68;99906.72;105652;1257;61199;-25
2023/02/11 05:20:02;;;;;;;24.80;11.20;;;;;;;0.16;75.70;99899.95;105807;1256;61645;-25
2023/02/11 05:22:32;;;;;;;26.50;11.70;;;;;;;-0.07;76.28;99899.65;105650;1257;74404;-24
2023/02/11 05:25:01;;;;;;;15.30;8.50;;;;;;;-0.23;76.61;99891.81;105624;1261;75827;-25
2023/02/11 05:27:30;;;;;;;17.70;8.70;;;;;;;-0.36;76.95;99887.69;105921;1256;73993;-25
2023/02/11 05:29:59;;;;;;;14.70;8.00;;;;;;;0.01;77.20;99890.58;105701;1260;61708;-25
2023/02/11 05:32:28;;;;;;;20.60;10.50;;;;;;;0.66;75.51;99891.98;105852;1258;61614;-25
2023/02/11 05:34:57;;;;;;;27.30;13.70;;;;;;;0.74;73.97;99898.44;105757;1254;75351;-25
2023/02/11 05:37:26;;;;;;;24.00;11.60;;;;;;;0.56;74.19;99901.30;105721;1255;75863;-26
2023/02/11 05:39:54;;;;;;;25.20;11.40;;;;;;;0.36;74.67;99899.77;105562;1257;74178;-24
2023/02/11 05:42:23;;;;;;;25.40;12.20;;;;;;;0.15;74.88;99898.77;105645;1256;61151;-24
2023/02/11 05:44:52;;;;;;;21.80;11.70;;;;;;;-0.05;75.39;99898.75;105656;1257;61618;-24
2023/02/11 05:47:21;;;;;;;27.70;12.10;;;;;;;-0.25;76.08;99896.29;105631;1259;75110;-24
2023/02/11 05:49:50;;;;;;;23.10;10.80;;;;;;;-0.37;77.11;99898.27;105537;1261;75593;-24
2023/02/11 05:52:20;;;;;;;22.80;12.10;;;;;;;0.28;76.26;99893.15;105960;1254;74178;-24
2023/02/11 05:54:48;;;;;;;19.90;9.40;;;;;;;0.87;74.59;99890.06;105404;1258;61661;-24
2023/02/11 05:57:19;;;;;;;22.60;11.90;;;;;;;0.96;73.55;99889.98;105599;1256;61818;-26
2023/02/11 05:59:47;;;;;;;24.30;12.40;;;;;;;0.68;73.48;99879.98;105667;1255;75336;-26
2023/02/11 06:02:19;;;;;;;28.00;12.70;;;;;;;0.46;73.59;99878.00;105790;1257;75778;-25
2023/02/11 06:04:48;;;;;;;25.30;12.50;;;;;;;0.23;74.28;99880.46;105871;1257;74396;-25
2023/02/11 06:07:22;;;;;;;32.90;14.60;;;;;;;0.03;74.82;99885.23;105630;1257;61039;-25
2023/02/11 06:09:51;;;;;;;28.20;14.10;;;;;;;-0.17;75.27;99882.45;105776;1257;61809;-24
2023/02/11 06:12:20;;;;;;;23.60;12.00;;;;;;;-0.33;75.78;99879.75;105772;1253;75431;-24
2023/02/11 06:14:49;;;;;;;22.10;9.70;;;;;;;-0.32;76.58;99876.85;105608;1254;75700;-25
2023/02/11 06:17:18;;;;;;;22.30;11.30;;;;;;;0.41;75.63;99875.23;105774;1253;74108;-25
2023/02/11 06:19:50;;;;;;;26.40;13.70;;;;;;;0.77;73.87;99862.81;105623;1254;61176;-25
2023/02/11 06:22:19;;;;;;;24.40;12.90;;;;;;;0.71;73.52;99860.23;105920;1257;61128;-25
2023/02/11 06:24:47;;;;;;;24.80;12.50;;;;;;;0.46;73.98;99855.61;105987;1254;75526;-25
2023/02/11 06:27:31;;;;;;;20.60;9.90;;;;;;;0.19;74.63;99856.48;105922;1257;74583;-25
2023/02/11 06:30:00;;;;;;;24.30;11.90;;;;;;;-0.02;75.19;99861.96;105951;1255;73007;-24
2023/02/11 06:32:29;;;;;;;30.80;11.10;;;;;;;-0.19;75.85;99857.59;105868;1254;61090;-24
2023/02/11 06:35:14;;;;;;;19.90;9.50;;;;;;;-0.33;76.17;99855.86;105957;1256;61129;-24
2023/02/11 06:37:45;;;;;;;22.30;11.40;;;;;;;0.12;75.82;99848.81;105731;1258;75031;-24
2023/02/11 06:40:14;;;;;;;21.70;11.70;;;;;;;0.55;74.16;99847.00;105919;1254;74898;-25
2023/02/11 06:42:43;;;;;;;18.60;9.40;;;;;;;0.59;73.68;99845.18;105750;1259;73253;-25
2023/02/11 06:45:12;;;;;;;17.10;9.20;;;;;;;0.47;73.39;99841.23;105742;1253;61132;-25
2023/02/11 06:47:41;;;;;;;26.50;11.80;;;;;;;0.24;73.73;99838.44;105885;1257;61800;-25
2023/02/11 06:50:12;;;;;;;26.50;12.90;;;;;;;0.05;74.56;99832.44;105921;1254;75362;-25
2023/02/11 06:52:42;;;;;;;26.80;13.40;;;;;;;-0.11;74.70;99833.66;105721;1254;75841;-25
2023/02/11 06:55:11;;;;;;;22.60;11.80;;;;;;;-0.20;75.18;99828.27;105876;1255;72710;-25
2023/02/11 06:57:40;;;;;;;13.20;8.20;;;;;;;-0.28;75.51;99811.57;105688;1252;62678;-25
2023/02/11 07:00:10;;;;;;;16.70;9.00;;;;;;;0.19;75.35;99807.65;105679;1259;61886;-25
2023/02/11 07:02:39;;;;;;;15.10;8.60;;;;;;;0.67;73.69;99804.79;105665;1255;75168;-24
2023/02/11 07:05:09;;;;;;;22.70;11.30;;;;;;;0.66;72.89;99798.84;105880;1254;75838;-25
2023/02/11 07:07:39;;;;;;;19.20;11.20;;;;;;;0.48;73.26;99789.60;105642;1254;74158;-25
2023/02/11 07:10:09;;;;;;;25.00;12.50;;;;;;;0.30;73.53;99790.77;105713;1254;61067;-24
2023/02/11 07:12:39;;;;;;;12.80;7.80;;;;;;;0.14;74.07;99785.21;105672;1254;61075;-25
2023/02/11 07:15:08;;;;;;;18.70;7.60;;;;;;;0.00;74.51;99780.30;105917;1254;75205;-25
2023/02/11 07:17:37;;;;;;;15.80;8.10;;;;;;;-0.00;75.61;99779.62;105713;1254;74852;-25
2023/02/11 07:27:42;;;;;;;25.20;10.30;;;;;;;0.65;73.06;99755.64;103040;1287;600056;-25
2023/02/11 07:30:12;;;;;;;12.70;8.90;;;;;;;0.38;73.80;99754.16;104916;1264;61097;-25
2023/02/11 07:32:41;;;;;;;21.20;10.20;;;;;;;0.23;74.59;99752.55;104891;1273;61772;-26
2023/02/11 07:35:10;;;;;;;19.40;10.90;;;;;;;0.31;74.25;99748.58;104889;1267;72846;-26
2023/02/11 07:37:40;;;;;;;9.60;5.70;;;;;;;0.58;74.10;99750.38;105169;1267;75825;-25
2023/02/11 07:40:10;;;;;;;11.70;6.30;;;;;;;1.23;72.27;99746.21;104521;1268;2038775;-26
2023/02/11 07:42:40;;;;;;;14.20;9.00;;;;;;;1.36;71.21;99742.70;104928;1262;61705;-26
2023/02/11 07:45:10;;;;;;;22.50;12.90;;;;;;;1.29;70.90;99737.98;105238;1264;61839;-26
2023/02/11 07:47:41;;;;;;;20.30;10.90;;;;;;;0.97;71.33;99737.26;105254;1264;73798;-25
2023/02/11 07:50:10;;;;;;;18.70;11.20;;;;;;;0.89;72.07;99749.95;105177;1264;75854;-26
2023/02/11 07:52:42;;;;;;;16.10;9.60;;;;;;;0.77;72.48;99750.66;105204;1264;74080;-26
2023/02/11 07:55:11;;;;;;;18.60;9.00;;;;;;;0.58;73.47;99751.23;105181;1262;61119;-26
2023/02/11 07:57:40;;;;;;;17.50;9.40;;;;;;;0.51;73.14;99739.64;105159;1264;61931;-26
2023/02/11 08:00:09;;;;;;;17.70;9.70;;;;;;;0.62;73.58;99736.40;105245;1266;74590;-25
2023/02/11 08:02:38;;;;;;;18.80;9.20;;;;;;;1.17;71.88;99736.98;104903;1264;75548;-24
2023/02/11 08:05:07;;;;;;;21.40;10.30;;;;;;;1.26;71.25;99735.83;105132;1264;73263;-26
2023/02/11 08:07:36;;;;;;;21.60;11.80;;;;;;;1.10;71.53;99735.84;105269;1264;61115;-24
2023/02/11 08:10:06;;;;;;;21.60;12.60;;;;;;;0.89;71.95;99741.60;105178;1266;61860;-24
2023/02/11 08:13:51;;;;;;;19.50;10.60;;;;;;;0.55;72.89;99744.30;102608;1292;600903;-26
2023/02/11 08:16:24;;;;;;;15.30;10.60;;;;;;;0.42;73.29;99733.56;104845;1272;61233;-26
2023/02/11 08:18:56;;;;;;;21.40;12.50;;;;;;;0.25;73.96;99740.71;104748;1266;61590;-26
2023/02/11 08:21:25;;;;;;;16.30;8.30;;;;;;;0.09;75.03;99740.79;104795;1267;71369;-26
2023/02/11 08:23:54;;;;;;;17.70;10.10;;;;;;;0.57;74.15;99739.63;104824;1272;76414;-26
2023/02/11 08:26:24;;;;;;;15.70;9.10;;;;;;;0.91;72.55;99737.08;103499;1267;1891554;-27
2023/02/11 08:28:54;;;;;;;16.70;9.40;;;;;;;0.88;72.55;99746.58;104839;1264;61173;-26
2023/02/11 08:31:28;;;;;;;22.40;10.90;;;;;;;0.74;72.61;99745.28;104882;1265;61577;-25
2023/02/11 08:33:57;;;;;;;19.80;11.00;;;;;;;0.54;73.07;99746.20;104723;1267;72703;-25
2023/02/11 08:36:31;;;;;;;16.90;9.60;;;;;;;0.32;74.03;99742.73;104838;1266;75880;-25
2023/02/11 08:39:04;;;;;;;16.60;8.30;;;;;;;0.19;74.37;99738.65;104758;1268;74198;-25
2023/02/11 08:41:48;;;;;;;14.10;7.10;;;;;;;0.11;74.96;99735.11;104640;1266;61150;-25
2023/02/11 08:44:18;;;;;;;23.20;10.70;;;;;;;0.55;74.03;99739.68;104659;1266;61177;-25
2023/02/11 08:46:47;;;;;;;17.30;10.10;;;;;;;0.99;72.51;99747.27;104791;1266;73705;-25
2023/02/11 08:49:16;;;;;;;17.60;9.30;;;;;;;1.07;71.72;99742.25;105496;1260;75933;-26
2023/02/11 08:51:45;;;;;;;10.50;6.20;;;;;;;0.97;71.83;99739.64;105318;1263;74286;-25
2023/02/11 08:54:14;;;;;;;18.00;8.90;;;;;;;0.83;71.48;99731.02;105101;1260;61272;-25
2023/02/11 08:56:43;;;;;;;12.60;8.40;;;;;;;0.63;71.85;99731.27;105268;1262;61705;-25
2023/02/11 08:59:13;;;;;;;20.70;8.20;;;;;;;0.55;72.30;99738.67;105255;1260;74292;-25
2023/02/11 09:01:42;;;;;;;13.00;8.60;;;;;;;0.38;72.64;99732.15;105287;1260;74862;-25
2023/02/11 09:04:12;;;;;;;14.10;8.10;;;;;;;0.31;72.45;99719.34;105205;1258;74178;-25
2023/02/11 09:06:41;;;;;;;15.50;7.10;;;;;;;0.62;72.01;99722.90;105152;1262;61169;-25
2023/02/11 09:09:12;;;;;;;13.40;6.70;;;;;;;1.02;70.23;99716.73;105110;1260;61054;-24
2023/02/11 09:11:41;;;;;;;14.40;7.80;;;;;;;1.13;69.44;99711.63;104985;1260;74484;-25
2023/02/11 09:14:15;;;;;;;12.50;7.10;;;;;;;1.06;69.21;99701.08;104999;1260;75977;-25
2023/02/11 09:16:45;;;;;;;11.70;6.90;;;;;;;0.92;69.17;99689.69;104920;1260;73173;-24
2023/02/11 09:19:17;;;;;;;12.20;6.30;;;;;;;0.71;69.50;99680.44;105432;1258;61151;-25
2023/02/11 09:21:46;;;;;;;23.60;8.00;;;;;;;0.54;69.97;99687.25;105351;1260;61860;-24
2023/02/11 09:24:15;;;;;;;11.50;7.00;;;;;;;0.53;70.66;99682.00;105134;1260;73866;-24
2023/02/11 09:26:44;;;;;;;13.80;6.00;;;;;;;0.51;70.04;99665.64;105148;1262;75849;-24
2023/02/11 09:29:13;;;;;;;13.50;7.10;;;;;;;0.43;70.25;99671.69;105182;1260;73053;-25
2023/02/11 09:31:41;;;;;;;9.80;5.60;;;;;;;0.45;70.16;99670.95;105165;1262;61466;-25
2023/02/11 09:34:11;;;;;;;10.50;7.20;;;;;;;0.70;69.70;99662.67;105114;1262;61771;-25
2023/02/11 09:36:40;;;;;;;11.40;6.40;;;;;;;1.29;67.84;99664.90;105106;1259;74538;-25
2023/02/11 09:39:17;;;;;;;8.70;5.10;;;;;;;1.41;66.68;99652.05;105346;1262;75170;-25
2023/02/11 09:42:33;;;;;;;11.00;6.20;;;;;;;1.38;66.39;99657.09;105070;1260;73846;-25
2023/02/11 09:45:03;;;;;;;14.80;6.10;;;;;;;1.24;66.60;99644.55;105068;1260;61164;-25
2023/02/11 09:47:35;;;;;;;9.80;5.80;;;;;;;1.16;66.74;99643.27;105028;1265;61687;-25
2023/02/11 09:50:06;;;;;;;10.40;5.60;;;;;;;0.98;66.93;99634.98;105015;1265;74360;-25
2023/02/11 09:53:19;;;;;;;9.20;5.50;;;;;;;0.87;67.45;99622.48;105278;1263;75811;-25
2023/02/11 09:55:54;;;;;;;8.50;5.20;;;;;;;0.82;66.93;99617.55;104856;1266;73248;-26
2023/02/11 09:58:27;;;;;;;8.30;4.70;;;;;;;0.80;67.14;99602.72;104851;1271;61260;-25
2023/02/11 10:01:07;;;;;;;10.30;5.60;;;;;;;0.82;67.44;99597.52;104875;1271;61291;-25
2023/02/11 10:03:57;;;;;;;11.10;5.50;;;;;;;0.93;67.11;99587.05;104868;1266;73425;-25
2023/02/11 10:06:26;;;;;;;7.80;4.60;;;;;;;0.99;66.69;99573.90;105128;1268;75091;-26
2023/02/11 10:09:24;;;;;;;10.10;6.50;;;;;;;1.03;66.01;99564.52;105105;1268;74247;-25
2023/02/11 10:12:14;;;;;;;7.40;4.40;;;;;;;1.08;65.86;99554.09;105128;1266;61005;-25
2023/02/11 10:15:00;;;;;;;17.00;4.70;;;;;;;1.15;65.91;99536.93;104924;1268;62015;-26
2023/02/11 10:17:56;;;;;;;7.60;4.50;;;;;;;1.17;65.36;99530.35;104630;1266;74549;-25
2023/02/11 10:20:29;;;;;;;8.30;4.90;;;;;;;1.28;64.85;99513.23;104758;1268;76214;-25
2023/02/11 10:23:00;;;;;;;8.90;4.40;;;;;;;1.26;64.34;99508.84;104903;1268;73292;-27
2023/02/11 10:25:43;;;;;;;6.80;3.50;;;;;;;1.24;64.50;99506.35;104876;1270;61155;-26
2023/02/11 10:28:16;;;;;;;;;;;;;;;1.18;64.31;99485.17;104720;1264;61279;-26
2023/02/11 10:30:48;;;;;;;5.40;3.30;;;;;;;1.18;64.50;99492.36;104989;1260;74585;-26
2023/02/11 10:33:24;;;;;;;6.20;3.00;;;;;;;1.23;63.63;99469.80;105368;1262;73893;-25
2023/02/11 10:35:53;;;;;;;6.00;3.00;;;;;;;1.41;63.62;99482.45;105174;1259;74181;-25
2023/02/11 10:38:21;;;;;;;9.90;3.70;;;;;;;1.47;62.97;99473.02;105186;1260;61237;-24
2023/02/11 10:40:50;;;;;;;8.20;4.30;;;;;;;1.44;62.99;99478.77;105129;1263;61568;-24
2023/02/11 10:43:22;;;;;;;7.60;4.50;;;;;;;1.49;63.45;99473.13;105104;1260;74500;-25
2023/02/11 10:45:53;;;;;;;8.60;4.80;;;;;;;1.47;63.15;99470.09;105109;1260;75930;-25
2023/02/11 10:48:55;;;;;;;8.70;5.00;;;;;;;1.48;62.88;99462.02;105108;1265;72617;-25
2023/02/11 10:51:28;;;;;;;11.30;5.10;;;;;;;1.48;63.63;99465.10;105312;1259;61224;-24
2023/02/11 10:54:03;;;;;;;9.80;5.00;;;;;;;1.63;63.08;99452.20;105158;1259;61104;-26
2023/02/11 10:56:34;;;;;;;9.70;4.80;;;;;;;1.63;62.27;99449.45;105420;1259;74526;-26
2023/02/11 10:59:26;;;;;;;10.00;5.60;;;;;;;1.65;62.40;99448.89;105218;1259;76162;-26
2023/02/11 11:01:57;;;;;;;11.90;5.40;;;;;;;1.68;62.10;99437.49;105136;1268;74465;-25
2023/02/11 11:04:30;;;;;;;8.50;5.50;;;;;;;1.61;62.20;99434.84;104935;1265;61224;-24
2023/02/11 11:07:29;;;;;;;8.00;4.80;;;;;;;1.73;62.00;99431.14;105091;1261;61141;-25
2023/02/11 11:10:07;;;;;;;10.80;5.90;;;;;;;1.90;61.31;99427.04;105301;1260;74543;-25
2023/02/11 11:12:45;;;;;;;7.00;4.70;;;;;;;2.03;60.91;99419.52;105308;1265;74723;-25
2023/02/11 11:15:17;;;;;;;12.20;7.60;;;;;;;2.02;60.22;99413.72;105412;1260;74214;-24
2023/02/11 11:17:50;;;;;;;8.70;5.30;;;;;;;1.92;59.85;99409.17;104941;1260;61017;-26
2023/02/11 11:20:26;;;;;;;12.80;7.00;;;;;;;1.91;60.36;99416.22;104993;1263;61269;-25
2023/02/11 11:23:18;;;;;;;15.10;6.50;;;;;;;1.90;60.54;99409.92;105126;1259;74220;-25
2023/02/11 11:26:04;;;;;;;8.40;5.30;;;;;;;1.92;60.50;99393.92;105089;1260;76485;-25
2023/02/11 11:28:38;;;;;;;14.00;7.20;;;;;;;1.92;59.23;99378.48;105077;1260;74122;-25
2023/02/11 11:31:37;;;;;;;;;;;;;;;1.88;59.49;99386.20;105087;1260;61173;-25
2023/02/11 11:34:37;;;;;;;10.00;5.50;;;;;;;1.78;59.22;99386.41;105207;1258;61449;-25
2023/02/11 11:37:11;;;;;;;14.60;7.30;;;;;;;1.68;60.70;99385.98;105125;1262;74250;-24
2023/02/11 11:39:40;;;;;;;9.80;6.40;;;;;;;1.74;59.51;99382.98;105272;1264;76281;-25
2023/02/11 11:42:26;;;;;;;11.00;6.30;;;;;;;1.77;58.13;99369.88;105170;1259;74057;-25
2023/02/11 11:45:21;;;;;;;13.60;7.70;;;;;;;1.90;58.57;99377.05;105057;1263;61174;-25
2023/02/11 11:48:20;;;;;;;14.90;7.70;;;;;;;2.00;58.38;99374.41;104989;1261;61061;-25
2023/02/11 11:50:51;;;;;;;12.00;7.70;;;;;;;1.89;57.48;99353.77;105067;1260;74580;-25
2023/02/11 11:53:30;;;;;;;9.20;6.40;;;;;;;1.85;58.13;99357.05;105071;1260;75787;-25
2023/02/11 11:56:22;;;;;;;12.60;7.80;;;;;;;1.67;57.08;99340.64;105423;1263;74316;-25
2023/02/11 11:58:51;;;;;;;14.70;8.30;;;;;;;1.56;57.60;99340.23;105295;1259;61057;-25
2023/02/11 12:01:36;;;;;;;11.50;7.30;;;;;;;1.49;58.04;99351.80;105263;1262;61803;-25